createdAt,value
2023-09-25T00:02:02.902Z,4.70
2023-09-25T00:05:19.959Z,4.62
2023-09-25T00:08:33.983Z,5.25
2023-09-25T00:11:49.239Z,3.45
2023-09-25T00:15:05.785Z,4.62
2023-09-25T00:18:18.619Z,4.35
2023-09-25T00:21:31.378Z,4.10
2023-09-25T00:24:45.850Z,3.98
2023-09-25T00:28:01.954Z,4.03
2023-09-25T00:31:15.706Z,3.98
2023-09-25T00:34:27.304Z,4.83
2023-09-25T00:37:42.371Z,3.47
2023-09-25T00:40:56.592Z,4.00
2023-09-25T00:44:11.248Z,5.45
2023-09-25T00:47:22.747Z,6.00
2023-09-25T00:50:37.771Z,4.40
2023-09-25T00:53:53.358Z,4.00
2023-09-25T00:57:08.137Z,3.80
2023-09-25T01:00:26.260Z,4.12
2023-09-25T01:03:40.507Z,4.78
2023-09-25T01:06:55.580Z,4.28
2023-09-25T01:10:24.911Z,4.03
2023-09-25T01:13:39.378Z,4.50
2023-09-25T01:16:54.316Z,4.05
2023-09-25T01:20:10.188Z,3.75
2023-09-25T01:23:23.033Z,4.28
2023-09-25T01:26:38.098Z,4.72
2023-09-25T01:29:52.718Z,4.97
2023-09-25T01:33:08.202Z,5.03
2023-09-25T01:36:22.854Z,5.72
2023-09-25T01:39:38.349Z,4.37
2023-09-25T01:42:54.194Z,5.00
2023-09-25T01:46:08.771Z,4.85
2023-09-25T01:49:23.518Z,4.20
2023-09-25T01:52:35.805Z,4.28
2023-09-25T01:55:52.331Z,6.62
2023-09-25T01:59:06.177Z,5.42
2023-09-25T02:02:22.858Z,5.30
2023-09-25T02:05:37.544Z,4.95
2023-09-25T02:08:52.354Z,4.25
2023-09-25T02:12:03.669Z,5.87
2023-09-25T02:15:20.129Z,5.58
2023-09-25T02:18:35.160Z,6.08
2023-09-25T02:21:49.718Z,6.03
2023-09-25T02:25:04.099Z,5.62
2023-09-25T02:28:18.518Z,4.92
2023-09-25T02:31:30.478Z,5.35
2023-09-25T02:34:46.633Z,4.55
2023-09-25T02:37:59.213Z,5.95
2023-09-25T02:41:15.278Z,4.50
2023-09-25T02:44:30.512Z,3.92
2023-09-25T02:47:43.557Z,5.25
2023-09-25T02:50:57.019Z,5.12
2023-09-25T02:54:10.633Z,3.95
2023-09-25T02:57:26.810Z,4.08
2023-09-25T03:00:42.553Z,4.35
2023-09-25T03:03:53.842Z,4.80
2023-09-25T03:07:09.498Z,4.62
2023-09-25T03:10:23.276Z,4.47
2023-09-25T03:13:36.229Z,5.08
2023-09-25T03:16:51.604Z,4.42
2023-09-25T03:20:08.043Z,3.60
2023-09-25T03:23:22.663Z,4.45
2023-09-25T03:26:38.151Z,4.78
2023-09-25T03:29:53.858Z,4.75
2023-09-25T03:33:08.309Z,5.03
2023-09-25T03:36:23.987Z,5.35
2023-09-25T03:39:38.047Z,4.15
2023-09-25T03:42:53.952Z,4.12
2023-09-25T03:46:08.557Z,3.75
2023-09-25T03:49:24.710Z,4.00
2023-09-25T03:52:39.148Z,4.17
2023-09-25T03:55:53.020Z,4.50
2023-09-25T03:59:05.867Z,4.80
2023-09-25T04:05:28.540Z,4.47
2023-09-25T04:08:42.972Z,3.95
2023-09-25T04:11:57.014Z,4.03
2023-09-25T04:15:14.755Z,5.12
2023-09-25T04:18:30.945Z,3.92
2023-09-25T04:21:46.674Z,3.42
2023-09-25T04:25:01.048Z,3.72
2023-09-25T04:28:18.431Z,4.33
2023-09-25T04:31:34.328Z,3.58
2023-09-25T04:34:48.145Z,3.77
2023-09-25T04:38:00.809Z,4.05
2023-09-25T04:41:14.242Z,3.62
2023-09-25T04:44:29.177Z,3.40
2023-09-25T04:47:44.867Z,3.47
2023-09-25T04:50:58.629Z,4.72
2023-09-25T04:54:14.041Z,3.40
2023-09-25T04:57:28.636Z,3.25
2023-09-25T05:00:44.104Z,3.47
2023-09-25T05:03:59.333Z,4.20
2023-09-25T05:07:13.891Z,3.98
2023-09-25T05:10:31.138Z,2.77
2023-09-25T05:13:45.840Z,4.10
2023-09-25T05:17:01.952Z,3.77
2023-09-25T05:20:19.281Z,4.15
2023-09-25T05:23:34.037Z,3.75
2023-09-25T05:26:49.705Z,4.40
2023-09-25T05:30:06.877Z,4.90
2023-09-25T05:33:20.066Z,3.95
2023-09-25T05:36:35.130Z,3.65
2023-09-25T05:39:50.846Z,3.52
2023-09-25T05:43:06.306Z,5.07
2023-09-25T05:46:19.464Z,4.03
2023-09-25T05:49:34.867Z,3.33
2023-09-25T05:52:49.735Z,3.60
2023-09-25T05:56:05.220Z,3.67
2023-09-25T05:59:19.557Z,4.30
2023-09-25T06:02:37.408Z,4.25
2023-09-25T06:05:51.873Z,4.00
2023-09-25T06:09:06.268Z,4.05
2023-09-25T06:12:20.087Z,4.40
2023-09-25T06:15:34.760Z,3.87
2023-09-25T06:18:50.063Z,4.05
2023-09-25T06:22:05.438Z,4.22
2023-09-25T06:25:22.761Z,3.62
2023-09-25T06:32:02.131Z,3.57
2023-09-25T06:35:14.035Z,3.98
2023-09-25T06:38:27.238Z,3.15
2023-09-25T06:41:42.960Z,3.85
2023-09-25T06:44:55.453Z,4.35
2023-09-25T06:48:08.985Z,3.65
2023-09-25T06:51:24.550Z,5.03
2023-09-25T06:54:39.907Z,4.70
2023-09-25T06:57:53.302Z,3.80
2023-09-25T07:01:06.077Z,3.67
2023-09-25T07:04:19.348Z,3.58
2023-09-25T07:07:33.817Z,3.25
2023-09-25T07:10:47.211Z,3.65
2023-09-25T07:14:02.432Z,4.20
2023-09-25T07:17:17.678Z,3.62
2023-09-25T07:20:31.759Z,4.70
2023-09-25T07:23:46.085Z,4.53
2023-09-25T07:27:00.229Z,4.08
2023-09-25T07:30:17.207Z,3.67
2023-09-25T07:33:31.269Z,3.95
2023-09-25T07:36:48.680Z,4.00
2023-09-25T07:40:05.065Z,3.80
2023-09-25T07:43:20.224Z,3.17
2023-09-25T07:46:35.601Z,4.15
2023-09-25T07:49:50.309Z,4.28
2023-09-25T07:53:06.782Z,4.05
2023-09-25T07:56:20.739Z,4.22
2023-09-25T07:59:33.313Z,4.08
2023-09-25T08:02:50.349Z,4.20
2023-09-25T08:06:06.379Z,3.50
2023-09-25T08:09:23.227Z,4.25
2023-09-25T08:12:38.111Z,4.15
2023-09-25T08:15:50.987Z,4.03
2023-09-25T08:19:05.817Z,3.60
2023-09-25T08:22:22.294Z,3.58
2023-09-25T08:25:36.696Z,4.50
2023-09-25T08:28:51.294Z,4.70
2023-09-25T08:32:06.032Z,3.83
2023-09-25T08:35:19.855Z,4.22
2023-09-25T08:38:35.791Z,4.08
2023-09-25T08:41:50.804Z,3.62
2023-09-25T08:45:09.088Z,4.05
2023-09-25T08:48:25.824Z,3.25
2023-09-25T08:51:42.636Z,4.75
2023-09-25T08:54:56.142Z,3.37
2023-09-25T08:58:09.078Z,4.00
2023-09-25T09:01:23.669Z,4.20
2023-09-25T09:04:38.736Z,4.75
2023-09-25T09:08:03.589Z,4.25
2023-09-25T09:11:21.026Z,4.00
2023-09-25T09:14:45.466Z,4.47
2023-09-25T09:17:59.647Z,3.85
2023-09-25T09:21:14.435Z,3.77
2023-09-25T09:24:46.895Z,3.60
2023-09-25T09:27:57.857Z,5.03
2023-09-25T09:31:10.502Z,4.15
2023-09-25T09:34:25.044Z,3.55
2023-09-25T09:37:39.420Z,4.90
2023-09-25T09:40:54.598Z,4.17
2023-09-25T09:44:09.097Z,3.65
2023-09-25T09:47:25.674Z,3.83
2023-09-25T09:50:41.620Z,3.65
2023-09-25T09:53:58.519Z,4.10
2023-09-25T09:57:13.470Z,3.72
2023-09-25T10:00:30.396Z,3.67
2023-09-25T10:03:44.934Z,3.67
2023-09-25T10:07:06.179Z,3.33
2023-09-25T10:10:21.546Z,4.20
2023-09-25T10:13:34.596Z,3.92
2023-09-25T10:20:43.548Z,3.87
2023-09-25T10:23:58.759Z,3.47
2023-09-25T10:27:15.115Z,4.55
2023-09-25T10:30:29.473Z,4.35
2023-09-25T10:33:45.524Z,3.35
2023-09-25T10:37:00.511Z,4.22
2023-09-25T10:40:14.563Z,4.20
2023-09-25T10:43:30.078Z,4.70
2023-09-25T10:46:43.582Z,3.30
2023-09-25T10:49:58.891Z,3.55
2023-09-25T10:53:12.821Z,3.55
2023-09-25T10:56:29.357Z,5.22
2023-09-25T10:59:43.837Z,2.85
2023-09-25T11:02:58.918Z,3.17
2023-09-25T11:06:13.856Z,4.05
2023-09-25T11:09:27.867Z,4.42
2023-09-25T11:12:43.151Z,3.55
2023-09-25T11:15:57.904Z,3.50
2023-09-25T11:19:23.681Z,3.70
2023-09-25T11:22:38.845Z,3.37
2023-09-25T11:25:53.772Z,3.45
2023-09-25T11:29:07.871Z,4.30
2023-09-25T11:32:21.849Z,3.92
2023-09-25T11:35:37.848Z,4.53
2023-09-25T11:38:52.821Z,3.50
2023-09-25T11:42:07.611Z,4.33
2023-09-25T11:45:21.880Z,3.60
2023-09-25T11:48:36.680Z,3.75
2023-09-25T11:51:51.771Z,3.92
2023-09-25T11:55:07.524Z,8.23
2023-09-25T11:58:21.062Z,37.67
2023-09-25T12:01:35.575Z,69.50
2023-09-25T12:04:49.425Z,57.27
2023-09-25T12:08:03.920Z,49.00
2023-09-25T12:11:19.586Z,44.55
2023-09-25T12:14:32.877Z,39.95
2023-09-25T12:17:49.944Z,37.30
2023-09-25T12:21:02.170Z,34.40
2023-09-25T12:24:16.808Z,34.60
2023-09-25T12:27:31.854Z,29.37
2023-09-25T12:30:46.774Z,29.57
2023-09-25T12:34:00.345Z,29.57
2023-09-25T12:37:15.382Z,25.00
2023-09-25T12:40:32.186Z,23.50
2023-09-25T12:43:45.378Z,27.30
2023-09-25T12:46:59.679Z,23.65
2023-09-25T12:50:15.935Z,21.52
2023-09-25T12:53:33.383Z,20.25
2023-09-25T12:56:47.650Z,18.45
2023-09-25T13:00:02.192Z,19.10
2023-09-25T13:03:15.469Z,18.42
2023-09-25T13:06:28.810Z,19.23
2023-09-25T13:09:42.807Z,19.40
2023-09-25T13:12:57.339Z,16.82
2023-09-25T13:16:13.585Z,15.93
2023-09-25T13:19:29.520Z,16.48
2023-09-25T13:22:44.541Z,17.30
2023-09-25T13:25:58.782Z,18.23
2023-09-25T13:29:13.077Z,15.08
2023-09-25T13:32:26.431Z,15.03
2023-09-25T13:35:40.880Z,14.43
2023-09-25T13:38:57.475Z,16.90
2023-09-25T13:42:13.952Z,14.43
2023-09-25T13:45:28.914Z,15.15
2023-09-25T13:48:43.351Z,14.93
2023-09-25T13:51:58.870Z,14.20
2023-09-25T13:55:17.970Z,11.63
2023-09-25T13:58:32.807Z,14.63
2023-09-25T14:01:49.284Z,12.20
2023-09-25T14:05:03.456Z,11.85
2023-09-25T14:08:18.945Z,12.65
2023-09-25T14:11:33.532Z,14.15
2023-09-25T14:14:55.341Z,12.68
2023-09-25T14:18:11.671Z,11.12
2023-09-25T14:21:25.369Z,12.00
2023-09-25T14:24:39.926Z,12.50
2023-09-25T14:27:54.164Z,10.85
2023-09-25T14:31:08.580Z,11.78
2023-09-25T14:34:23.020Z,12.40
2023-09-25T14:37:37.644Z,11.38
2023-09-25T14:40:52.308Z,10.65
2023-09-25T14:44:07.405Z,11.78
2023-09-25T14:47:23.756Z,11.55
2023-09-25T14:50:37.537Z,11.15
2023-09-25T14:53:54.497Z,10.55
2023-09-25T14:57:06.698Z,10.23
2023-09-25T15:00:25.089Z,10.15
2023-09-25T15:03:39.285Z,11.43
2023-09-25T15:06:54.119Z,8.83
2023-09-25T15:10:09.090Z,10.30
2023-09-25T15:13:24.268Z,10.72
2023-09-25T15:16:38.578Z,8.95
2023-09-25T15:19:51.832Z,8.30
2023-09-25T15:23:03.793Z,8.15
2023-09-25T15:26:18.015Z,8.43
2023-09-25T15:29:33.488Z,8.83
2023-09-25T15:32:48.285Z,9.20
2023-09-25T15:36:04.911Z,10.55
2023-09-25T15:39:19.335Z,8.40
2023-09-25T15:42:36.096Z,8.98
2023-09-25T15:45:50.651Z,8.23
2023-09-25T15:49:06.755Z,9.03
2023-09-25T15:52:21.968Z,8.88
2023-09-25T15:55:36.763Z,9.60
2023-09-25T15:58:48.634Z,8.20
2023-09-25T16:02:03.687Z,8.23
2023-09-25T16:05:20.255Z,6.95
2023-09-25T16:08:35.313Z,7.92
2023-09-25T16:11:49.703Z,9.20
2023-09-25T16:15:03.504Z,8.48
2023-09-25T16:18:20.401Z,8.08
2023-09-25T16:21:35.892Z,7.87
2023-09-25T16:24:50.661Z,8.05
2023-09-25T16:28:06.313Z,7.55
2023-09-25T16:31:22.351Z,7.62
2023-09-25T16:34:37.313Z,8.15
2023-09-25T16:37:51.780Z,7.40
2023-09-25T16:41:11.732Z,6.72
2023-09-25T16:44:26.410Z,7.22
2023-09-25T16:47:41.281Z,6.85
2023-09-25T16:50:56.855Z,6.30
2023-09-25T16:54:13.072Z,6.62
2023-09-25T16:57:28.983Z,7.67
2023-09-25T17:00:42.301Z,6.87
2023-09-25T17:07:11.694Z,6.17
2023-09-25T17:10:27.719Z,5.55
2023-09-25T17:13:42.954Z,6.35
2023-09-25T17:16:57.212Z,6.10
2023-09-25T17:20:14.316Z,5.47
2023-09-25T17:23:27.907Z,6.53
2023-09-25T17:26:42.483Z,6.70
2023-09-25T17:29:58.522Z,5.72
2023-09-25T17:33:14.444Z,6.15
2023-09-25T17:36:29.154Z,5.00
2023-09-25T17:39:44.376Z,6.37
2023-09-25T17:42:58.888Z,5.78
2023-09-25T17:46:12.771Z,4.92
2023-09-25T17:49:27.407Z,5.58
2023-09-25T17:52:44.401Z,5.28
2023-09-25T17:56:02.967Z,4.67
2023-09-25T17:59:15.896Z,5.67
2023-09-25T18:02:31.856Z,5.85
2023-09-25T18:05:47.441Z,4.80
2023-09-25T18:09:01.713Z,4.25
2023-09-25T18:12:17.121Z,5.90
2023-09-25T18:15:31.556Z,5.17
2023-09-25T18:18:48.687Z,5.58
2023-09-25T18:22:03.510Z,4.92
2023-09-25T18:25:19.967Z,4.45
2023-09-25T18:28:34.714Z,6.22
2023-09-25T18:31:50.630Z,4.62
2023-09-25T18:35:04.699Z,4.08
2023-09-25T18:38:20.397Z,4.15
2023-09-25T18:41:36.855Z,4.50
2023-09-25T18:44:49.471Z,4.45
2023-09-25T18:48:01.666Z,4.62
2023-09-25T18:51:22.179Z,4.83
2023-09-25T18:54:36.884Z,5.03
2023-09-25T18:57:50.421Z,3.85
2023-09-25T19:01:00.842Z,5.15
2023-09-25T19:04:16.682Z,3.87
2023-09-25T19:07:26.371Z,4.00
2023-09-25T19:10:42.610Z,4.30
2023-09-25T19:13:57.304Z,3.77
2023-09-25T19:17:12.506Z,3.62
2023-09-25T19:20:27.979Z,4.37
2023-09-25T19:23:41.394Z,3.90
2023-09-25T19:26:56.676Z,4.47
2023-09-25T19:30:13.739Z,3.37
2023-09-25T19:33:49.918Z,4.22
2023-09-25T19:36:45.620Z,3.52
2023-09-25T19:40:04.273Z,3.83
2023-09-25T19:43:18.731Z,3.47
2023-09-25T19:46:35.093Z,3.72
2023-09-25T19:49:49.682Z,3.30
2023-09-25T19:53:04.680Z,3.87
2023-09-25T19:56:17.518Z,3.37
2023-09-25T20:02:40.949Z,3.55
2023-09-25T20:05:54.438Z,3.75
2023-09-25T20:09:08.993Z,4.25
2023-09-25T20:12:22.407Z,4.17
2023-09-25T20:15:36.830Z,3.52
2023-09-25T20:18:51.442Z,4.75
2023-09-25T20:22:05.652Z,3.25
2023-09-25T20:25:22.797Z,3.83
2023-09-25T20:28:37.333Z,3.35
2023-09-25T20:31:51.681Z,3.42
2023-09-25T20:35:06.080Z,4.35
2023-09-25T20:38:18.537Z,3.58
2023-09-25T20:41:31.103Z,4.10
2023-09-25T20:44:45.367Z,3.70
2023-09-25T20:47:59.216Z,3.08
2023-09-25T20:51:15.192Z,3.70
2023-09-25T20:54:29.898Z,3.27
2023-09-25T20:57:43.936Z,3.35
2023-09-25T21:00:56.585Z,3.08
2023-09-25T21:04:11.126Z,3.45
2023-09-25T21:07:24.741Z,3.30
2023-09-25T21:10:39.068Z,4.12
2023-09-25T21:13:53.731Z,3.58
2023-09-25T21:17:08.841Z,3.62
2023-09-25T21:20:23.875Z,4.03
2023-09-25T21:23:39.371Z,3.37
2023-09-25T21:26:53.807Z,3.22
2023-09-25T21:30:08.563Z,3.27
2023-09-25T21:33:23.059Z,4.15
2023-09-25T21:36:37.650Z,3.27
2023-09-25T21:39:51.005Z,2.55
2023-09-25T21:43:03.697Z,3.77
2023-09-25T21:46:15.469Z,3.25
2023-09-25T21:49:30.024Z,3.33
2023-09-25T21:52:43.285Z,3.45
2023-09-25T21:55:56.555Z,4.08
2023-09-25T21:59:10.091Z,2.75
2023-09-25T22:02:24.435Z,3.00
2023-09-25T22:05:39.170Z,3.08
2023-09-25T22:08:54.211Z,4.05
2023-09-25T22:12:08.569Z,4.05
2023-09-25T22:15:21.968Z,4.92
2023-09-25T22:18:32.985Z,4.33
2023-09-25T22:21:47.809Z,4.55
2023-09-25T22:25:02.557Z,5.45
2023-09-25T22:28:17.843Z,5.67
2023-09-25T22:31:32.411Z,4.92
2023-09-25T22:34:45.005Z,4.33
2023-09-25T22:38:15.629Z,4.85
2023-09-25T22:41:30.346Z,4.70
2023-09-25T22:44:42.924Z,4.78
2023-09-25T22:47:57.506Z,3.90
2023-09-25T22:51:12.393Z,3.67
2023-09-25T22:54:30.354Z,3.80
2023-09-25T22:57:42.904Z,3.92
2023-09-25T23:01:00.469Z,3.50
2023-09-25T23:04:16.323Z,3.90
2023-09-25T23:07:29.310Z,3.60
2023-09-25T23:13:54.157Z,3.42
2023-09-25T23:17:08.507Z,4.28
2023-09-25T23:20:23.834Z,4.00
2023-09-25T23:23:38.920Z,4.10
2023-09-25T23:26:52.435Z,3.95
2023-09-25T23:30:07.424Z,4.03
2023-09-25T23:33:20.118Z,4.03
2023-09-25T23:36:36.416Z,3.75
2023-09-25T23:39:51.317Z,3.65
2023-09-25T23:43:05.848Z,5.55
2023-09-25T23:46:19.781Z,3.60
2023-09-25T23:49:34.507Z,5.10
2023-09-25T23:52:50.827Z,4.25
2023-09-25T23:56:08.968Z,4.37
2023-09-25T23:59:23.732Z,5.70
